createdAt,value
2022-09-23T00:01:09.202Z,6.90
2022-09-23T00:03:38.548Z,7.57
2022-09-23T00:06:11.346Z,6.63
2022-09-23T00:08:39.316Z,6.70
2022-09-23T00:11:11.881Z,6.80
2022-09-23T00:13:40.543Z,7.47
2022-09-23T00:16:16.693Z,7.75
2022-09-23T00:18:44.299Z,7.07
2022-09-23T00:21:14.613Z,7.47
2022-09-23T00:23:43.682Z,7.67
2022-09-23T00:26:15.953Z,8.02
2022-09-23T00:28:43.965Z,8.17
2022-09-23T00:31:17.104Z,8.30
2022-09-23T00:33:44.572Z,8.60
2022-09-23T00:36:15.805Z,8.67
2022-09-23T00:38:44.083Z,8.63
2022-09-23T00:41:12.200Z,7.07
2022-09-23T00:43:53.032Z,7.57
2022-09-23T00:46:22.291Z,6.97
2022-09-23T00:48:55.761Z,7.22
2022-09-23T00:51:25.649Z,6.53
2022-09-23T00:53:53.118Z,5.60
2022-09-23T00:56:22.399Z,6.17
2022-09-23T00:58:50.608Z,6.45
2022-09-23T01:01:19.401Z,5.87
2022-09-23T01:03:47.918Z,6.50
2022-09-23T01:06:15.092Z,6.13
2022-09-23T01:08:46.166Z,6.90
2022-09-23T01:11:29.032Z,6.93
2022-09-23T01:14:14.330Z,6.67
2022-09-23T01:16:52.842Z,6.70
2022-09-23T01:19:35.153Z,7.30
2022-09-23T01:22:30.645Z,7.20
2022-09-23T01:25:19.216Z,7.03
2022-09-23T01:27:59.263Z,7.63
2022-09-23T01:30:47.976Z,7.03
2022-09-23T01:33:28.399Z,7.13
2022-09-23T01:36:24.259Z,7.77
2022-09-23T01:39:01.264Z,7.37
2022-09-23T01:41:35.489Z,7.37
2022-09-23T01:44:23.179Z,8.17
2022-09-23T01:47:14.340Z,8.60
2022-09-23T01:49:57.464Z,8.50
2022-09-23T01:52:35.545Z,8.77
2022-09-23T01:55:12.137Z,7.70
2022-09-23T01:57:48.990Z,7.77
2022-09-23T02:00:18.404Z,7.23
2022-09-23T02:05:30.472Z,8.60
2022-09-23T02:08:06.156Z,7.40
2022-09-23T02:10:37.260Z,8.97
2022-09-23T02:13:13.961Z,9.23
2022-09-23T02:15:47.948Z,8.40
2022-09-23T02:18:21.275Z,7.77
2022-09-23T02:20:51.196Z,8.33
2022-09-23T02:23:52.047Z,8.83
2022-09-23T02:26:51.638Z,8.70
2022-09-23T02:29:33.871Z,10.33
2022-09-23T02:32:10.216Z,8.80
2022-09-23T02:34:55.677Z,7.87
2022-09-23T02:37:43.658Z,7.00
2022-09-23T02:40:13.640Z,7.20
2022-09-23T02:42:52.957Z,7.07
2022-09-23T02:45:20.098Z,6.88
2022-09-23T02:47:53.433Z,7.97
2022-09-23T02:50:22.436Z,7.40
2022-09-23T02:52:49.874Z,7.20
2022-09-23T02:55:18.790Z,6.60
2022-09-23T02:57:46.193Z,7.20
2022-09-23T03:00:13.669Z,7.47
2022-09-23T03:02:40.493Z,6.50
2022-09-23T03:05:24.254Z,6.70
2022-09-23T03:08:03.046Z,6.30
2022-09-23T03:10:48.606Z,6.88
2022-09-23T03:13:51.386Z,5.97
2022-09-23T03:16:34.690Z,6.87
2022-09-23T03:19:33.283Z,6.30
2022-09-23T03:22:09.143Z,8.05
2022-09-23T03:24:38.047Z,8.53
2022-09-23T03:27:13.921Z,7.18
2022-09-23T03:29:48.023Z,7.20
2022-09-23T03:32:17.349Z,7.77
2022-09-23T03:34:46.474Z,8.90
2022-09-23T03:37:41.046Z,7.75
2022-09-23T03:40:25.125Z,7.83
2022-09-23T03:42:54.112Z,8.13
2022-09-23T03:45:26.256Z,8.10
2022-09-23T03:47:53.412Z,9.13
2022-09-23T03:50:21.500Z,9.30
2022-09-23T03:52:50.592Z,9.60
2022-09-23T03:55:18.823Z,9.75
2022-09-23T03:57:45.975Z,9.87
2022-09-23T04:00:14.239Z,9.60
2022-09-23T04:02:41.440Z,9.60
2022-09-23T04:05:10.080Z,8.57
2022-09-23T04:07:36.877Z,11.18
2022-09-23T04:10:05.127Z,12.17
2022-09-23T04:12:32.082Z,11.50
2022-09-23T04:14:58.996Z,13.00
2022-09-23T04:17:26.290Z,12.07
2022-09-23T04:19:53.066Z,12.87
2022-09-23T04:22:20.036Z,11.40
2022-09-23T04:24:47.027Z,14.10
2022-09-23T04:27:13.992Z,14.27
2022-09-23T04:29:40.740Z,15.47
2022-09-23T04:32:07.579Z,16.03
2022-09-23T04:34:34.355Z,14.20
2022-09-23T04:37:01.227Z,15.07
2022-09-23T04:39:28.032Z,14.87
2022-09-23T04:41:56.792Z,14.00
2022-09-23T04:44:23.597Z,14.52
2022-09-23T04:46:50.446Z,14.87
2022-09-23T04:49:17.733Z,14.23
2022-09-23T04:51:45.182Z,14.00
2022-09-23T04:54:12.879Z,14.80
2022-09-23T04:56:39.980Z,13.97
2022-09-23T04:59:07.382Z,13.20
2022-09-23T05:01:35.162Z,12.93
2022-09-23T05:04:06.148Z,12.97
2022-09-23T05:06:35.094Z,14.40
2022-09-23T05:09:03.068Z,12.55
2022-09-23T05:11:34.164Z,12.93
2022-09-23T05:14:01.203Z,18.77
2022-09-23T05:16:28.045Z,22.50
2022-09-23T05:18:55.091Z,24.63
2022-09-23T05:21:24.668Z,19.70
2022-09-23T05:23:55.271Z,18.77
2022-09-23T05:26:25.588Z,27.50
2022-09-23T05:28:54.050Z,25.03
2022-09-23T05:31:26.659Z,28.23
2022-09-23T05:33:57.531Z,23.97
2022-09-23T05:36:25.581Z,25.57
2022-09-23T05:38:52.904Z,18.20
2022-09-23T05:41:23.277Z,13.13
2022-09-23T05:43:54.577Z,13.53
2022-09-23T05:46:28.093Z,12.17
2022-09-23T05:49:01.181Z,11.07
2022-09-23T05:51:31.147Z,9.97
2022-09-23T05:53:59.026Z,10.80
2022-09-23T05:56:27.880Z,9.73
2022-09-23T05:58:57.225Z,9.40
2022-09-23T06:03:54.510Z,9.97
2022-09-23T06:06:27.999Z,9.07
2022-09-23T06:08:54.905Z,8.37
2022-09-23T06:11:21.840Z,7.67
2022-09-23T06:13:49.485Z,8.57
2022-09-23T06:16:16.767Z,9.03
2022-09-23T06:18:45.396Z,7.20
2022-09-23T06:21:14.755Z,6.82
2022-09-23T06:26:11.695Z,6.37
2022-09-23T06:31:14.103Z,6.57
2022-09-23T06:33:42.955Z,6.83
2022-09-23T06:36:10.917Z,5.90
2022-09-23T06:38:44.275Z,6.27
2022-09-23T06:41:12.499Z,6.03
2022-09-23T06:43:39.490Z,7.10
2022-09-23T06:46:08.256Z,7.17
2022-09-23T06:48:40.813Z,5.18
2022-09-23T06:51:19.125Z,7.03
2022-09-23T06:53:49.514Z,6.93
2022-09-23T06:56:18.032Z,6.57
2022-09-23T06:58:44.996Z,6.47
2022-09-23T07:01:22.078Z,6.77
2022-09-23T07:04:02.806Z,5.80
2022-09-23T07:06:32.487Z,6.03
2022-09-23T07:08:59.368Z,5.23
2022-09-23T07:11:27.097Z,5.73
2022-09-23T07:13:54.033Z,6.37
2022-09-23T07:16:21.457Z,4.77
2022-09-23T07:18:48.393Z,5.23
2022-09-23T07:21:18.386Z,5.50
2022-09-23T07:23:47.139Z,5.00
2022-09-23T07:26:15.479Z,4.90
2022-09-23T07:28:42.351Z,5.00
2022-09-23T07:31:12.553Z,4.25
2022-09-23T07:33:44.349Z,5.65
2022-09-23T07:36:15.178Z,5.00
2022-09-23T07:38:45.464Z,4.45
2022-09-23T07:41:16.137Z,4.97
2022-09-23T07:43:44.261Z,3.85
2022-09-23T07:46:17.808Z,4.40
2022-09-23T07:48:45.981Z,4.53
2022-09-23T07:51:19.155Z,4.60
2022-09-23T07:53:51.334Z,4.47
2022-09-23T07:56:19.553Z,4.53
2022-09-23T07:59:00.456Z,5.05
2022-09-23T08:01:35.808Z,4.63
2022-09-23T08:04:08.563Z,4.47
2022-09-23T08:06:36.011Z,3.40
2022-09-23T08:09:02.881Z,4.15
2022-09-23T08:11:29.820Z,3.80
2022-09-23T08:13:57.508Z,3.65
2022-09-23T08:16:24.417Z,3.55
2022-09-23T08:18:51.352Z,3.30
2022-09-23T08:21:22.281Z,3.75
2022-09-23T08:23:49.562Z,4.00
2022-09-23T08:26:21.550Z,3.72
2022-09-23T08:28:50.122Z,3.20
2022-09-23T08:31:17.111Z,3.42
2022-09-23T08:33:44.614Z,3.13
2022-09-23T08:36:11.445Z,3.78
2022-09-23T08:38:38.259Z,2.95
2022-09-23T08:41:20.636Z,2.70
2022-09-23T08:43:51.470Z,3.33
2022-09-23T08:46:24.437Z,2.90
2022-09-23T08:48:52.830Z,2.92
2022-09-23T08:51:29.578Z,2.85
2022-09-23T08:53:58.464Z,2.75
2022-09-23T08:56:25.360Z,3.00
2022-09-23T08:59:07.702Z,2.60
2022-09-23T09:01:40.697Z,2.17
2022-09-23T09:04:13.344Z,2.20
2022-09-23T09:06:53.000Z,2.72
2022-09-23T09:09:40.258Z,2.35
2022-09-23T09:12:24.363Z,2.10
2022-09-23T09:15:07.702Z,1.55
2022-09-23T09:17:59.398Z,2.08
2022-09-23T09:20:29.085Z,2.45
2022-09-23T09:23:00.755Z,1.95
2022-09-23T09:25:43.137Z,2.30
2022-09-23T09:28:21.788Z,1.88
2022-09-23T09:30:54.348Z,1.35
2022-09-23T09:33:28.308Z,1.08
2022-09-23T09:36:09.138Z,1.10
2022-09-23T09:38:37.111Z,1.60
2022-09-23T09:41:32.832Z,1.77
2022-09-23T09:44:03.665Z,1.25
2022-09-23T09:46:51.294Z,1.13
2022-09-23T09:49:47.071Z,1.50
2022-09-23T09:52:18.291Z,1.05
2022-09-23T09:54:45.068Z,1.00
2022-09-23T09:57:30.713Z,1.13
2022-09-23T10:00:26.563Z,0.82
2022-09-23T10:02:55.753Z,0.90
2022-09-23T10:07:54.915Z,1.13
2022-09-23T10:10:33.707Z,0.90
2022-09-23T10:13:15.253Z,1.10
2022-09-23T10:15:45.315Z,1.08
2022-09-23T10:18:32.054Z,0.80
2022-09-23T10:21:09.758Z,1.23
2022-09-23T10:23:43.911Z,1.08
2022-09-23T10:26:12.629Z,1.00
2022-09-23T10:28:50.670Z,0.68
2022-09-23T10:31:29.173Z,1.30
2022-09-23T10:34:15.873Z,0.90
2022-09-23T10:36:44.672Z,1.70
2022-09-23T10:39:30.223Z,1.05
2022-09-23T10:42:25.428Z,0.55
2022-09-23T10:45:48.265Z,0.93
2022-09-23T10:48:50.403Z,0.90
2022-09-23T10:51:26.856Z,0.60
2022-09-23T10:54:35.296Z,0.77
2022-09-23T10:57:33.195Z,0.95
2022-09-23T11:00:11.257Z,0.77
2022-09-23T11:02:52.923Z,0.80
2022-09-23T11:05:26.596Z,0.52
2022-09-23T11:08:34.636Z,0.77
2022-09-23T11:11:23.224Z,0.43
2022-09-23T11:14:04.360Z,0.55
2022-09-23T11:16:49.735Z,0.50
2022-09-23T11:19:54.328Z,0.40
2022-09-23T11:22:24.115Z,0.40
2022-09-23T11:25:23.786Z,0.20
2022-09-23T11:28:30.285Z,0.35
2022-09-23T11:30:57.104Z,0.25
2022-09-23T11:33:42.201Z,0.20
2022-09-23T11:36:16.577Z,0.40
2022-09-23T11:38:48.911Z,0.45
2022-09-23T11:41:25.574Z,0.30
2022-09-23T11:44:21.613Z,0.25
2022-09-23T11:47:11.148Z,0.40
2022-09-23T11:49:49.792Z,0.20
2022-09-23T11:52:20.638Z,0.40
2022-09-23T11:55:22.582Z,0.40
2022-09-23T11:58:01.968Z,0.30
2022-09-23T12:00:34.493Z,0.40
2022-09-23T12:03:07.173Z,0.38
2022-09-23T12:05:41.948Z,0.40
2022-09-23T12:08:32.474Z,0.30
2022-09-23T12:11:31.829Z,0.35
2022-09-23T12:14:26.877Z,0.35
2022-09-23T12:16:56.612Z,0.40
2022-09-23T12:19:23.483Z,0.75
2022-09-23T12:22:05.440Z,0.90
2022-09-23T12:24:52.001Z,0.60
2022-09-23T12:27:28.731Z,0.75
2022-09-23T12:30:01.615Z,0.47
2022-09-23T12:32:29.127Z,0.88
2022-09-23T12:34:56.682Z,0.55
2022-09-23T12:37:36.559Z,0.40
2022-09-23T12:40:16.638Z,0.50
2022-09-23T12:42:46.524Z,0.50
2022-09-23T12:45:35.732Z,0.40
2022-09-23T12:48:05.373Z,0.38
2022-09-23T12:50:56.155Z,0.38
2022-09-23T12:53:35.037Z,0.30
2022-09-23T12:56:15.484Z,0.70
2022-09-23T12:58:42.433Z,0.60
2022-09-23T13:01:20.315Z,0.60
2022-09-23T13:04:10.086Z,0.63
2022-09-23T13:06:53.575Z,0.50
2022-09-23T13:09:25.071Z,0.40
2022-09-23T13:11:53.592Z,0.40
2022-09-23T13:14:27.376Z,0.68
2022-09-23T13:16:56.328Z,0.47
2022-09-23T13:19:25.931Z,0.30
2022-09-23T13:22:11.576Z,0.40
2022-09-23T13:24:45.173Z,0.50
2022-09-23T13:27:17.760Z,0.63
2022-09-23T13:29:55.348Z,1.50
2022-09-23T13:32:29.151Z,0.60
2022-09-23T13:35:16.664Z,0.60
2022-09-23T13:37:48.952Z,0.47
2022-09-23T13:40:21.252Z,0.60
2022-09-23T13:42:53.857Z,0.60
2022-09-23T13:45:24.409Z,0.40
2022-09-23T13:47:53.222Z,0.85
2022-09-23T13:50:23.130Z,0.43
2022-09-23T13:52:55.962Z,0.60
2022-09-23T13:55:28.055Z,0.50
2022-09-23T13:58:00.582Z,0.52
2022-09-23T14:00:27.738Z,0.85
2022-09-23T14:02:54.602Z,0.60
2022-09-23T14:05:27.334Z,0.52
2022-09-23T14:07:55.842Z,0.70
2022-09-23T14:10:24.959Z,0.90
2022-09-23T14:12:53.012Z,0.50
2022-09-23T14:15:21.164Z,0.50
2022-09-23T14:17:50.257Z,0.53
2022-09-23T14:20:20.768Z,0.40
2022-09-23T14:22:47.917Z,0.40
2022-09-23T14:25:17.041Z,0.40
2022-09-23T14:27:46.942Z,0.60
2022-09-23T14:30:20.704Z,0.82
2022-09-23T14:32:48.043Z,0.52
2022-09-23T14:35:23.541Z,0.40
2022-09-23T14:38:12.847Z,0.60
2022-09-23T14:41:15.843Z,0.55
2022-09-23T14:44:00.096Z,0.43
2022-09-23T14:46:29.854Z,0.93
2022-09-23T14:49:14.050Z,0.50
2022-09-23T14:51:57.818Z,0.40
2022-09-23T14:54:33.265Z,0.50
2022-09-23T14:57:18.485Z,0.45
2022-09-23T14:59:53.291Z,0.50
2022-09-23T15:02:42.484Z,0.30
2022-09-23T15:05:17.639Z,0.60
2022-09-23T15:07:48.852Z,0.40
2022-09-23T15:10:20.082Z,0.40
2022-09-23T15:12:50.582Z,0.50
2022-09-23T15:15:18.818Z,0.93
2022-09-23T15:17:46.849Z,0.80
2022-09-23T15:20:16.666Z,0.50
2022-09-23T15:22:49.723Z,0.88
2022-09-23T15:25:20.993Z,0.90
2022-09-23T15:28:03.487Z,0.90
2022-09-23T15:30:32.154Z,1.20
2022-09-23T15:32:59.971Z,0.90
2022-09-23T15:35:27.062Z,1.13
2022-09-23T15:37:58.344Z,0.70
2022-09-23T15:40:30.971Z,1.38
2022-09-23T15:42:59.963Z,1.08
2022-09-23T15:45:40.884Z,1.20
2022-09-23T15:48:13.403Z,1.60
2022-09-23T15:50:45.730Z,0.73
2022-09-23T15:53:16.125Z,1.20
2022-09-23T15:55:43.096Z,1.05
2022-09-23T15:58:09.948Z,1.30
2022-09-23T16:00:37.462Z,0.82
2022-09-23T16:03:05.330Z,0.85
2022-09-23T16:05:38.866Z,1.10
2022-09-23T16:08:09.222Z,0.93
2022-09-23T16:10:37.020Z,1.23
2022-09-23T16:13:06.776Z,1.35
2022-09-23T16:15:33.989Z,1.00
2022-09-23T16:18:00.974Z,0.85
2022-09-23T16:20:30.226Z,1.75
2022-09-23T16:25:28.429Z,1.63
2022-09-23T16:27:56.491Z,2.15
2022-09-23T16:30:25.284Z,2.00
2022-09-23T16:32:52.337Z,1.45
2022-09-23T16:35:23.734Z,2.15
2022-09-23T16:37:51.653Z,2.15
2022-09-23T16:40:23.361Z,2.13
2022-09-23T16:42:52.551Z,2.03
2022-09-23T16:45:23.295Z,2.17
2022-09-23T16:47:52.039Z,2.88
2022-09-23T16:50:21.161Z,2.55
2022-09-23T16:55:16.056Z,5.65
2022-09-23T16:57:43.145Z,7.30
2022-09-23T17:00:34.146Z,8.30
2022-09-23T17:03:19.958Z,8.98
2022-09-23T17:05:47.328Z,10.10
2022-09-23T17:08:16.095Z,6.53
2022-09-23T17:10:44.865Z,4.70
2022-09-23T17:13:15.759Z,4.05
2022-09-23T17:15:44.173Z,4.28
2022-09-23T17:18:11.031Z,4.03
2022-09-23T17:20:38.879Z,3.65
2022-09-23T17:23:06.162Z,3.58
2022-09-23T17:25:34.174Z,2.92
2022-09-23T17:28:01.250Z,3.03
2022-09-23T17:30:29.014Z,3.00
2022-09-23T17:32:55.871Z,3.33
2022-09-23T17:35:22.991Z,3.22
2022-09-23T17:37:50.173Z,3.20
2022-09-23T17:40:18.216Z,3.78
2022-09-23T17:42:45.121Z,4.82
2022-09-23T17:45:14.605Z,3.63
2022-09-23T17:47:42.323Z,3.30
2022-09-23T17:50:09.371Z,3.33
2022-09-23T17:52:36.188Z,4.30
2022-09-23T17:55:03.006Z,4.72
2022-09-23T17:57:29.817Z,5.32
2022-09-23T17:59:56.761Z,4.38
2022-09-23T18:02:23.764Z,4.70
2022-09-23T18:04:50.608Z,3.53
2022-09-23T18:07:17.433Z,3.58
2022-09-23T18:09:44.320Z,3.95
2022-09-23T18:12:11.206Z,4.20
2022-09-23T18:14:37.965Z,4.65
2022-09-23T18:17:04.773Z,8.45
2022-09-23T18:19:31.572Z,6.63
2022-09-23T18:21:58.482Z,4.47
2022-09-23T18:24:32.185Z,4.63
2022-09-23T18:27:00.235Z,4.40
2022-09-23T18:29:27.644Z,4.13
2022-09-23T18:31:54.544Z,4.97
2022-09-23T18:34:22.086Z,3.88
2022-09-23T18:36:48.986Z,5.20
2022-09-23T18:39:16.053Z,4.38
2022-09-23T18:41:43.183Z,4.70
2022-09-23T18:44:10.129Z,5.45
2022-09-23T18:46:37.081Z,5.68
2022-09-23T18:49:22.960Z,4.30
2022-09-23T18:51:57.667Z,5.82
2022-09-23T18:54:27.431Z,5.80
2022-09-23T18:56:55.188Z,6.03
2022-09-23T18:59:26.141Z,5.32
2022-09-23T19:01:56.701Z,6.43
2022-09-23T19:04:25.492Z,6.17
2022-09-23T19:06:54.109Z,5.28
2022-09-23T19:09:20.977Z,5.45
2022-09-23T19:11:52.275Z,6.93
2022-09-23T19:14:19.914Z,5.93
2022-09-23T19:16:49.210Z,5.80
2022-09-23T19:21:43.378Z,5.70
2022-09-23T19:24:14.522Z,5.63
2022-09-23T19:26:42.259Z,5.27
2022-09-23T19:29:14.450Z,5.87
2022-09-23T19:31:42.191Z,6.00
2022-09-23T19:34:18.094Z,5.97
2022-09-23T19:36:47.293Z,6.63
2022-09-23T19:39:32.260Z,6.32
2022-09-23T19:41:59.401Z,6.40
2022-09-23T19:44:26.960Z,6.07
2022-09-23T19:46:56.877Z,6.40
2022-09-23T19:49:25.575Z,5.93
2022-09-23T19:51:55.949Z,5.13
2022-09-23T19:54:23.565Z,5.67
2022-09-23T19:56:50.689Z,6.67
2022-09-23T19:59:19.033Z,5.17
2022-09-23T20:01:48.227Z,4.82
2022-09-23T20:04:16.394Z,5.55
2022-09-23T20:06:43.859Z,6.13
2022-09-23T20:09:10.740Z,5.83
2022-09-23T20:11:38.205Z,4.93
2022-09-23T20:14:06.418Z,5.03
2022-09-23T20:16:35.934Z,4.45
2022-09-23T20:19:04.497Z,4.72
2022-09-23T20:21:33.740Z,4.03
2022-09-23T20:26:46.942Z,5.10
2022-09-23T20:29:14.373Z,4.77
2022-09-23T20:31:41.747Z,4.70
2022-09-23T20:34:10.573Z,5.00
2022-09-23T20:36:39.636Z,4.85
2022-09-23T20:39:06.800Z,5.72
2022-09-23T20:41:37.854Z,6.47
2022-09-23T20:44:08.144Z,6.00
2022-09-23T20:46:36.044Z,6.87
2022-09-23T20:49:03.934Z,5.77
2022-09-23T20:51:33.509Z,4.83
2022-09-23T20:54:00.818Z,3.87
2022-09-23T20:56:28.760Z,4.50
2022-09-23T20:59:09.452Z,4.40
2022-09-23T21:01:37.117Z,2.90
2022-09-23T21:04:06.083Z,3.20
2022-09-23T21:06:35.119Z,2.58
2022-09-23T21:09:02.739Z,2.80
2022-09-23T21:11:30.073Z,2.80
2022-09-23T21:13:56.915Z,3.03
2022-09-23T21:16:24.617Z,3.60
2022-09-23T21:18:52.436Z,3.53
2022-09-23T21:21:22.286Z,3.97
2022-09-23T21:23:50.336Z,3.63
2022-09-23T21:26:24.815Z,4.07
2022-09-23T21:28:54.818Z,4.37
2022-09-23T21:31:25.887Z,5.30
2022-09-23T21:33:59.208Z,5.13
2022-09-23T21:36:28.274Z,5.30
2022-09-23T21:38:58.276Z,5.68
2022-09-23T21:41:25.462Z,6.43
2022-09-23T21:43:52.341Z,6.77
2022-09-23T21:46:21.023Z,6.77
2022-09-23T21:48:50.359Z,7.03
2022-09-23T21:51:19.368Z,7.32
2022-09-23T21:53:47.096Z,7.30
2022-09-23T21:56:41.038Z,7.20
2022-09-23T21:59:08.265Z,5.70
2022-09-23T22:01:41.607Z,6.70
2022-09-23T22:04:15.199Z,6.20
2022-09-23T22:06:42.293Z,6.53
2022-09-23T22:09:12.815Z,5.53
2022-09-23T22:11:59.637Z,5.93
2022-09-23T22:14:26.739Z,6.23
2022-09-23T22:16:57.936Z,6.30
2022-09-23T22:19:27.101Z,6.57
2022-09-23T22:21:56.266Z,6.45
2022-09-23T22:24:23.440Z,6.95
2022-09-23T22:26:50.615Z,7.20
2022-09-23T22:29:36.469Z,7.83
2022-09-23T22:32:23.639Z,7.80
2022-09-23T22:34:52.162Z,8.17
2022-09-23T22:37:28.653Z,7.45
2022-09-23T22:39:55.523Z,6.60
2022-09-23T22:42:22.707Z,6.63
2022-09-23T22:44:50.311Z,6.47
2022-09-23T22:47:20.410Z,6.43
2022-09-23T22:49:48.295Z,6.67
2022-09-23T22:52:16.301Z,7.23
2022-09-23T22:54:43.446Z,6.50
2022-09-23T22:57:10.636Z,6.83
2022-09-23T22:59:37.797Z,7.40
2022-09-23T23:02:06.772Z,6.50
2022-09-23T23:04:34.009Z,6.80
2022-09-23T23:07:00.871Z,6.67
2022-09-23T23:09:27.697Z,6.33
2022-09-23T23:11:54.876Z,6.47
2022-09-23T23:14:21.853Z,6.87
2022-09-23T23:16:48.745Z,6.57
2022-09-23T23:19:17.633Z,7.13
2022-09-23T23:21:45.593Z,6.93
2022-09-23T23:24:17.891Z,7.30
2022-09-23T23:26:45.335Z,6.40
2022-09-23T23:29:14.291Z,7.10
2022-09-23T23:31:41.597Z,6.65
2022-09-23T23:34:12.376Z,7.13
2022-09-23T23:36:40.034Z,8.03
2022-09-23T23:39:07.185Z,6.23
2022-09-23T23:41:34.037Z,6.30
2022-09-23T23:44:01.472Z,7.13
2022-09-23T23:46:30.849Z,6.43
2022-09-23T23:51:29.128Z,7.30
2022-09-23T23:53:56.722Z,7.43
2022-09-23T23:56:25.049Z,7.30
2022-09-23T23:58:56.772Z,7.07
